sensor_id;sensor_type;location;lat;lon;timestamp;P1;durP1;ratioP1;P2;durP2;ratioP2
46721;SDS011;32455;43.430;23.136;2023-12-14T00:00:00;10.48;;;9.38;;
46721;SDS011;32455;43.430;23.136;2023-12-14T00:02:46;15.25;;;10.73;;
46721;SDS011;32455;43.430;23.136;2023-12-14T00:05:31;12.45;;;9.63;;
46721;SDS011;32455;43.430;23.136;2023-12-14T00:08:17;11.23;;;9.13;;
46721;SDS011;32455;43.430;23.136;2023-12-14T00:11:05;10.65;;;9.18;;
46721;SDS011;32455;43.430;23.136;2023-12-14T00:13:51;13.50;;;9.93;;
46721;SDS011;32455;43.430;23.136;2023-12-14T00:16:37;13.75;;;10.77;;
46721;SDS011;32455;43.430;23.136;2023-12-14T00:19:23;18.58;;;12.27;;
46721;SDS011;32455;43.430;23.136;2023-12-14T00:22:09;13.27;;;10.82;;
46721;SDS011;32455;43.430;23.136;2023-12-14T00:24:54;15.93;;;11.63;;
46721;SDS011;32455;43.430;23.136;2023-12-14T00:27:40;15.88;;;11.73;;
46721;SDS011;32455;43.430;23.136;2023-12-14T00:30:25;13.55;;;10.40;;
46721;SDS011;32455;43.430;23.136;2023-12-14T00:33:10;15.18;;;11.95;;
46721;SDS011;32455;43.430;23.136;2023-12-14T00:35:56;13.38;;;11.00;;
46721;SDS011;32455;43.430;23.136;2023-12-14T00:38:42;13.70;;;11.07;;
46721;SDS011;32455;43.430;23.136;2023-12-14T00:41:27;14.38;;;11.32;;
46721;SDS011;32455;43.430;23.136;2023-12-14T00:44:13;14.07;;;10.60;;
46721;SDS011;32455;43.430;23.136;2023-12-14T00:46:58;14.27;;;10.32;;
46721;SDS011;32455;43.430;23.136;2023-12-14T00:49:45;15.95;;;12.20;;
46721;SDS011;32455;43.430;23.136;2023-12-14T00:52:30;15.40;;;10.80;;
46721;SDS011;32455;43.430;23.136;2023-12-14T00:55:15;13.50;;;10.18;;
46721;SDS011;32455;43.430;23.136;2023-12-14T00:58:01;13.43;;;11.18;;
46721;SDS011;32455;43.430;23.136;2023-12-14T01:00:46;16.85;;;10.57;;
46721;SDS011;32455;43.430;23.136;2023-12-14T01:03:32;14.15;;;10.82;;
46721;SDS011;32455;43.430;23.136;2023-12-14T01:06:18;16.52;;;11.70;;
46721;SDS011;32455;43.430;23.136;2023-12-14T01:09:03;15.98;;;11.75;;
46721;SDS011;32455;43.430;23.136;2023-12-14T01:11:48;13.30;;;10.25;;
46721;SDS011;32455;43.430;23.136;2023-12-14T01:14:34;12.98;;;10.88;;
46721;SDS011;32455;43.430;23.136;2023-12-14T01:17:19;16.30;;;10.25;;
46721;SDS011;32455;43.430;23.136;2023-12-14T01:20:08;13.45;;;10.57;;
46721;SDS011;32455;43.430;23.136;2023-12-14T01:22:54;14.38;;;10.32;;
46721;SDS011;32455;43.430;23.136;2023-12-14T01:25:39;12.68;;;9.40;;
46721;SDS011;32455;43.430;23.136;2023-12-14T01:28:25;13.10;;;9.93;;
46721;SDS011;32455;43.430;23.136;2023-12-14T01:31:10;14.20;;;10.38;;
46721;SDS011;32455;43.430;23.136;2023-12-14T01:33:56;13.75;;;10.52;;
46721;SDS011;32455;43.430;23.136;2023-12-14T01:36:41;11.25;;;9.70;;
46721;SDS011;32455;43.430;23.136;2023-12-14T01:39:27;11.27;;;8.80;;
46721;SDS011;32455;43.430;23.136;2023-12-14T01:42:12;12.02;;;10.43;;
46721;SDS011;32455;43.430;23.136;2023-12-14T01:44:58;14.38;;;9.95;;
46721;SDS011;32455;43.430;23.136;2023-12-14T01:47:44;15.00;;;11.13;;
46721;SDS011;32455;43.430;23.136;2023-12-14T01:50:29;11.75;;;10.27;;
46721;SDS011;32455;43.430;23.136;2023-12-14T01:53:15;14.85;;;11.70;;
46721;SDS011;32455;43.430;23.136;2023-12-14T01:56:00;12.35;;;10.52;;
46721;SDS011;32455;43.430;23.136;2023-12-14T01:58:46;13.95;;;12.32;;
46721;SDS011;32455;43.430;23.136;2023-12-14T02:04:25;13.13;;;10.30;;
46721;SDS011;32455;43.430;23.136;2023-12-14T02:07:11;13.80;;;10.90;;
46721;SDS011;32455;43.430;23.136;2023-12-14T02:09:57;15.57;;;11.85;;
46721;SDS011;32455;43.430;23.136;2023-12-14T02:12:42;14.35;;;11.00;;
46721;SDS011;32455;43.430;23.136;2023-12-14T02:15:28;14.00;;;10.93;;
46721;SDS011;32455;43.430;23.136;2023-12-14T02:18:13;12.57;;;10.15;;
46721;SDS011;32455;43.430;23.136;2023-12-14T02:20:58;14.27;;;10.63;;
46721;SDS011;32455;43.430;23.136;2023-12-14T02:23:44;14.32;;;11.30;;
46721;SDS011;32455;43.430;23.136;2023-12-14T02:26:30;13.13;;;9.70;;
46721;SDS011;32455;43.430;23.136;2023-12-14T02:29:15;12.85;;;10.25;;
46721;SDS011;32455;43.430;23.136;2023-12-14T02:32:01;13.27;;;10.43;;
46721;SDS011;32455;43.430;23.136;2023-12-14T02:34:46;14.13;;;11.27;;
46721;SDS011;32455;43.430;23.136;2023-12-14T02:37:32;12.98;;;10.15;;
46721;SDS011;32455;43.430;23.136;2023-12-14T02:40:18;11.45;;;9.23;;
46721;SDS011;32455;43.430;23.136;2023-12-14T02:43:04;11.35;;;9.05;;
46721;SDS011;32455;43.430;23.136;2023-12-14T02:45:49;12.88;;;9.23;;
46721;SDS011;32455;43.430;23.136;2023-12-14T02:48:35;11.35;;;9.10;;
46721;SDS011;32455;43.430;23.136;2023-12-14T02:51:21;12.48;;;8.32;;
46721;SDS011;32455;43.430;23.136;2023-12-14T02:54:06;10.55;;;8.85;;
46721;SDS011;32455;43.430;23.136;2023-12-14T02:56:52;11.25;;;8.50;;
46721;SDS011;32455;43.430;23.136;2023-12-14T02:59:37;10.93;;;8.30;;
46721;SDS011;32455;43.430;23.136;2023-12-14T03:02:24;11.65;;;8.35;;
46721;SDS011;32455;43.430;23.136;2023-12-14T03:05:09;10.27;;;8.40;;
46721;SDS011;32455;43.430;23.136;2023-12-14T03:07:54;9.70;;;7.97;;
46721;SDS011;32455;43.430;23.136;2023-12-14T03:10:40;10.52;;;7.47;;
46721;SDS011;32455;43.430;23.136;2023-12-14T03:13:25;7.97;;;7.15;;
46721;SDS011;32455;43.430;23.136;2023-12-14T03:16:13;8.90;;;7.57;;
46721;SDS011;32455;43.430;23.136;2023-12-14T03:18:58;8.98;;;7.22;;
46721;SDS011;32455;43.430;23.136;2023-12-14T03:21:44;8.93;;;6.97;;
46721;SDS011;32455;43.430;23.136;2023-12-14T03:24:29;7.15;;;6.45;;
46721;SDS011;32455;43.430;23.136;2023-12-14T03:27:15;9.02;;;7.15;;
46721;SDS011;32455;43.430;23.136;2023-12-14T03:30:00;9.85;;;7.05;;
46721;SDS011;32455;43.430;23.136;2023-12-14T03:32:46;8.85;;;7.40;;
46721;SDS011;32455;43.430;23.136;2023-12-14T03:35:31;7.38;;;6.50;;
46721;SDS011;32455;43.430;23.136;2023-12-14T03:38:17;7.85;;;6.03;;
46721;SDS011;32455;43.430;23.136;2023-12-14T03:41:02;9.10;;;6.50;;
46721;SDS011;32455;43.430;23.136;2023-12-14T03:43:48;8.48;;;6.13;;
46721;SDS011;32455;43.430;23.136;2023-12-14T03:46:33;8.20;;;6.25;;
46721;SDS011;32455;43.430;23.136;2023-12-14T03:49:19;7.05;;;5.82;;
46721;SDS011;32455;43.430;23.136;2023-12-14T03:52:05;6.72;;;6.03;;
46721;SDS011;32455;43.430;23.136;2023-12-14T03:54:50;6.93;;;6.15;;
46721;SDS011;32455;43.430;23.136;2023-12-14T03:57:36;8.48;;;6.85;;
46721;SDS011;32455;43.430;23.136;2023-12-14T04:00:21;7.90;;;6.30;;
46721;SDS011;32455;43.430;23.136;2023-12-14T04:03:07;8.88;;;6.05;;
46721;SDS011;32455;43.430;23.136;2023-12-14T04:05:52;8.32;;;6.18;;
46721;SDS011;32455;43.430;23.136;2023-12-14T04:08:38;10.82;;;7.32;;
46721;SDS011;32455;43.430;23.136;2023-12-14T04:11:24;8.60;;;6.38;;
46721;SDS011;32455;43.430;23.136;2023-12-14T04:14:09;7.13;;;5.90;;
46721;SDS011;32455;43.430;23.136;2023-12-14T04:16:55;7.80;;;6.82;;
46721;SDS011;32455;43.430;23.136;2023-12-14T04:19:41;7.75;;;6.05;;
46721;SDS011;32455;43.430;23.136;2023-12-14T04:22:26;9.20;;;6.38;;
46721;SDS011;32455;43.430;23.136;2023-12-14T04:25:12;7.57;;;6.10;;
46721;SDS011;32455;43.430;23.136;2023-12-14T04:27:57;9.35;;;6.53;;
46721;SDS011;32455;43.430;23.136;2023-12-14T04:30:42;10.15;;;6.88;;
46721;SDS011;32455;43.430;23.136;2023-12-14T04:33:28;10.25;;;7.40;;
46721;SDS011;32455;43.430;23.136;2023-12-14T04:36:14;9.05;;;7.05;;
46721;SDS011;32455;43.430;23.136;2023-12-14T04:38:59;7.70;;;6.47;;
46721;SDS011;32455;43.430;23.136;2023-12-14T04:41:44;15.07;;;9.25;;
46721;SDS011;32455;43.430;23.136;2023-12-14T04:44:31;15.05;;;10.52;;
46721;SDS011;32455;43.430;23.136;2023-12-14T04:47:16;12.73;;;10.60;;
46721;SDS011;32455;43.430;23.136;2023-12-14T04:50:02;14.05;;;9.85;;
46721;SDS011;32455;43.430;23.136;2023-12-14T04:52:48;13.43;;;10.38;;
46721;SDS011;32455;43.430;23.136;2023-12-14T04:55:33;12.52;;;9.68;;
46721;SDS011;32455;43.430;23.136;2023-12-14T04:58:19;12.82;;;9.63;;
46721;SDS011;32455;43.430;23.136;2023-12-14T05:01:04;13.18;;;10.10;;
46721;SDS011;32455;43.430;23.136;2023-12-14T05:03:49;16.38;;;10.88;;
46721;SDS011;32455;43.430;23.136;2023-12-14T05:06:35;17.17;;;11.32;;
46721;SDS011;32455;43.430;23.136;2023-12-14T05:09:21;14.93;;;10.25;;
46721;SDS011;32455;43.430;23.136;2023-12-14T05:12:07;12.07;;;9.70;;
46721;SDS011;32455;43.430;23.136;2023-12-14T05:14:52;13.18;;;10.23;;
46721;SDS011;32455;43.430;23.136;2023-12-14T05:17:38;13.55;;;11.75;;
46721;SDS011;32455;43.430;23.136;2023-12-14T05:20:23;13.18;;;11.23;;
46721;SDS011;32455;43.430;23.136;2023-12-14T05:23:09;13.32;;;11.70;;
46721;SDS011;32455;43.430;23.136;2023-12-14T05:25:54;15.98;;;12.02;;
46721;SDS011;32455;43.430;23.136;2023-12-14T05:28:40;18.75;;;13.77;;
46721;SDS011;32455;43.430;23.136;2023-12-14T05:31:26;18.10;;;13.40;;
46721;SDS011;32455;43.430;23.136;2023-12-14T05:34:11;16.67;;;14.05;;
46721;SDS011;32455;43.430;23.136;2023-12-14T05:36:56;21.85;;;14.13;;
46721;SDS011;32455;43.430;23.136;2023-12-14T05:39:42;17.05;;;13.60;;
46721;SDS011;32455;43.430;23.136;2023-12-14T05:42:28;18.90;;;13.52;;
46721;SDS011;32455;43.430;23.136;2023-12-14T05:45:14;17.85;;;13.50;;
46721;SDS011;32455;43.430;23.136;2023-12-14T05:47:59;20.40;;;14.32;;
46721;SDS011;32455;43.430;23.136;2023-12-14T05:50:44;18.30;;;15.65;;
46721;SDS011;32455;43.430;23.136;2023-12-14T05:53:30;15.02;;;12.98;;
46721;SDS011;32455;43.430;23.136;2023-12-14T05:56:15;16.98;;;14.05;;
46721;SDS011;32455;43.430;23.136;2023-12-14T05:59:02;19.38;;;14.85;;
46721;SDS011;32455;43.430;23.136;2023-12-14T06:01:47;19.95;;;16.95;;
46721;SDS011;32455;43.430;23.136;2023-12-14T06:04:33;18.05;;;16.20;;
46721;SDS011;32455;43.430;23.136;2023-12-14T06:07:18;18.92;;;15.30;;
46721;SDS011;32455;43.430;23.136;2023-12-14T06:10:04;17.85;;;15.50;;
46721;SDS011;32455;43.430;23.136;2023-12-14T06:12:50;17.50;;;14.77;;
46721;SDS011;32455;43.430;23.136;2023-12-14T06:15:36;15.38;;;13.35;;
46721;SDS011;32455;43.430;23.136;2023-12-14T06:18:21;18.75;;;15.05;;
46721;SDS011;32455;43.430;23.136;2023-12-14T06:21:07;13.65;;;11.93;;
46721;SDS011;32455;43.430;23.136;2023-12-14T06:23:53;18.35;;;12.90;;
46721;SDS011;32455;43.430;23.136;2023-12-14T06:26:42;14.32;;;10.98;;
46721;SDS011;32455;43.430;23.136;2023-12-14T06:29:30;15.18;;;11.93;;
46721;SDS011;32455;43.430;23.136;2023-12-14T06:32:16;10.35;;;8.40;;
46721;SDS011;32455;43.430;23.136;2023-12-14T06:35:01;15.23;;;10.45;;
46721;SDS011;32455;43.430;23.136;2023-12-14T06:37:47;10.32;;;8.95;;
46721;SDS011;32455;43.430;23.136;2023-12-14T06:40:32;12.48;;;9.50;;
46721;SDS011;32455;43.430;23.136;2023-12-14T06:43:18;13.27;;;9.35;;
46721;SDS011;32455;43.430;23.136;2023-12-14T06:46:03;14.88;;;11.10;;
46721;SDS011;32455;43.430;23.136;2023-12-14T06:48:49;12.57;;;9.65;;
46721;SDS011;32455;43.430;23.136;2023-12-14T06:51:34;11.98;;;9.75;;
46721;SDS011;32455;43.430;23.136;2023-12-14T06:54:20;14.30;;;9.48;;
46721;SDS011;32455;43.430;23.136;2023-12-14T06:57:06;12.98;;;10.25;;
46721;SDS011;32455;43.430;23.136;2023-12-14T06:59:51;14.85;;;9.15;;
46721;SDS011;32455;43.430;23.136;2023-12-14T07:02:37;13.18;;;10.65;;
46721;SDS011;32455;43.430;23.136;2023-12-14T07:05:22;13.68;;;10.93;;
46721;SDS011;32455;43.430;23.136;2023-12-14T07:08:07;13.10;;;10.30;;
46721;SDS011;32455;43.430;23.136;2023-12-14T07:10:53;14.25;;;10.27;;
46721;SDS011;32455;43.430;23.136;2023-12-14T07:13:39;13.73;;;10.68;;
46721;SDS011;32455;43.430;23.136;2023-12-14T07:16:24;13.98;;;11.27;;
46721;SDS011;32455;43.430;23.136;2023-12-14T07:19:10;18.98;;;11.43;;
46721;SDS011;32455;43.430;23.136;2023-12-14T07:21:58;18.17;;;13.48;;
46721;SDS011;32455;43.430;23.136;2023-12-14T07:24:44;20.35;;;16.30;;
46721;SDS011;32455;43.430;23.136;2023-12-14T07:27:29;20.35;;;16.77;;
46721;SDS011;32455;43.430;23.136;2023-12-14T07:30:15;17.23;;;14.65;;
46721;SDS011;32455;43.430;23.136;2023-12-14T07:33:00;23.08;;;16.67;;
46721;SDS011;32455;43.430;23.136;2023-12-14T07:35:46;22.38;;;16.25;;
46721;SDS011;32455;43.430;23.136;2023-12-14T07:38:31;18.60;;;15.38;;
46721;SDS011;32455;43.430;23.136;2023-12-14T07:41:17;18.83;;;15.52;;
46721;SDS011;32455;43.430;23.136;2023-12-14T07:44:02;16.63;;;12.88;;
46721;SDS011;32455;43.430;23.136;2023-12-14T07:46:47;15.68;;;12.75;;
46721;SDS011;32455;43.430;23.136;2023-12-14T07:49:33;13.95;;;10.98;;
46721;SDS011;32455;43.430;23.136;2023-12-14T07:52:18;20.90;;;12.07;;
46721;SDS011;32455;43.430;23.136;2023-12-14T07:55:04;18.08;;;13.07;;
46721;SDS011;32455;43.430;23.136;2023-12-14T07:57:50;18.58;;;12.38;;
46721;SDS011;32455;43.430;23.136;2023-12-14T08:00:36;14.48;;;11.25;;
46721;SDS011;32455;43.430;23.136;2023-12-14T08:03:21;15.30;;;10.65;;
46721;SDS011;32455;43.430;23.136;2023-12-14T08:06:07;14.93;;;11.57;;
46721;SDS011;32455;43.430;23.136;2023-12-14T08:08:52;18.42;;;11.45;;
46721;SDS011;32455;43.430;23.136;2023-12-14T08:11:38;19.50;;;12.23;;
46721;SDS011;32455;43.430;23.136;2023-12-14T08:14:23;16.45;;;11.70;;
46721;SDS011;32455;43.430;23.136;2023-12-14T08:17:09;17.48;;;11.77;;
46721;SDS011;32455;43.430;23.136;2023-12-14T08:19:55;19.23;;;12.05;;
46721;SDS011;32455;43.430;23.136;2023-12-14T08:22:41;16.65;;;12.23;;
46721;SDS011;32455;43.430;23.136;2023-12-14T08:25:29;20.92;;;12.85;;
46721;SDS011;32455;43.430;23.136;2023-12-14T08:28:14;18.10;;;11.30;;
46721;SDS011;32455;43.430;23.136;2023-12-14T08:31:00;19.40;;;13.30;;
46721;SDS011;32455;43.430;23.136;2023-12-14T08:33:47;21.95;;;14.52;;
46721;SDS011;32455;43.430;23.136;2023-12-14T08:36:33;19.80;;;13.32;;
46721;SDS011;32455;43.430;23.136;2023-12-14T08:39:18;18.13;;;13.63;;
46721;SDS011;32455;43.430;23.136;2023-12-14T08:42:04;26.27;;;14.60;;
46721;SDS011;32455;43.430;23.136;2023-12-14T08:44:49;20.42;;;14.90;;
46721;SDS011;32455;43.430;23.136;2023-12-14T08:47:35;20.67;;;15.63;;
46721;SDS011;32455;43.430;23.136;2023-12-14T08:50:20;20.25;;;14.88;;
46721;SDS011;32455;43.430;23.136;2023-12-14T08:53:06;25.77;;;15.57;;
46721;SDS011;32455;43.430;23.136;2023-12-14T08:55:52;24.63;;;15.20;;
46721;SDS011;32455;43.430;23.136;2023-12-14T08:58:37;25.13;;;16.08;;
46721;SDS011;32455;43.430;23.136;2023-12-14T09:01:23;26.50;;;15.60;;
46721;SDS011;32455;43.430;23.136;2023-12-14T09:04:09;27.52;;;15.43;;
46721;SDS011;32455;43.430;23.136;2023-12-14T09:06:54;22.83;;;14.05;;
46721;SDS011;32455;43.430;23.136;2023-12-14T09:09:40;19.70;;;14.50;;
46721;SDS011;32455;43.430;23.136;2023-12-14T09:12:25;19.17;;;13.93;;
46721;SDS011;32455;43.430;23.136;2023-12-14T09:15:11;21.92;;;14.55;;
46721;SDS011;32455;43.430;23.136;2023-12-14T09:17:56;23.90;;;12.63;;
46721;SDS011;32455;43.430;23.136;2023-12-14T09:20:42;20.08;;;12.35;;
46721;SDS011;32455;43.430;23.136;2023-12-14T09:23:28;20.92;;;12.30;;
46721;SDS011;32455;43.430;23.136;2023-12-14T09:26:14;22.20;;;11.57;;
46721;SDS011;32455;43.430;23.136;2023-12-14T09:28:59;36.20;;;20.90;;
46721;SDS011;32455;43.430;23.136;2023-12-14T09:31:45;38.08;;;19.95;;
46721;SDS011;32455;43.430;23.136;2023-12-14T09:34:31;38.15;;;24.75;;
46721;SDS011;32455;43.430;23.136;2023-12-14T09:37:16;43.55;;;28.27;;
46721;SDS011;32455;43.430;23.136;2023-12-14T09:40:02;46.10;;;32.88;;
46721;SDS011;32455;43.430;23.136;2023-12-14T09:42:47;50.22;;;32.72;;
46721;SDS011;32455;43.430;23.136;2023-12-14T09:45:33;49.20;;;33.15;;
46721;SDS011;32455;43.430;23.136;2023-12-14T09:48:18;48.72;;;31.63;;
46721;SDS011;32455;43.430;23.136;2023-12-14T09:51:05;40.55;;;29.27;;
46721;SDS011;32455;43.430;23.136;2023-12-14T09:53:51;38.55;;;27.90;;
46721;SDS011;32455;43.430;23.136;2023-12-14T09:56:46;45.33;;;28.48;;
46721;SDS011;32455;43.430;23.136;2023-12-14T09:59:32;36.78;;;27.38;;
46721;SDS011;32455;43.430;23.136;2023-12-14T10:02:17;40.28;;;27.25;;
46721;SDS011;32455;43.430;23.136;2023-12-14T10:05:03;34.50;;;26.25;;
46721;SDS011;32455;43.430;23.136;2023-12-14T10:07:55;31.70;;;21.38;;
46721;SDS011;32455;43.430;23.136;2023-12-14T10:10:40;23.33;;;17.15;;
46721;SDS011;32455;43.430;23.136;2023-12-14T10:13:36;22.40;;;16.20;;
46721;SDS011;32455;43.430;23.136;2023-12-14T10:16:29;23.80;;;14.50;;
46721;SDS011;32455;43.430;23.136;2023-12-14T10:19:16;20.65;;;13.93;;
46721;SDS011;32455;43.430;23.136;2023-12-14T10:22:03;17.23;;;12.40;;
46721;SDS011;32455;43.430;23.136;2023-12-14T10:24:49;18.60;;;13.27;;
46721;SDS011;32455;43.430;23.136;2023-12-14T10:27:37;19.90;;;13.88;;
46721;SDS011;32455;43.430;23.136;2023-12-14T10:30:23;20.00;;;13.68;;
46721;SDS011;32455;43.430;23.136;2023-12-14T10:33:09;15.57;;;10.98;;
46721;SDS011;32455;43.430;23.136;2023-12-14T10:35:54;15.07;;;9.95;;
46721;SDS011;32455;43.430;23.136;2023-12-14T10:38:42;14.88;;;9.48;;
46721;SDS011;32455;43.430;23.136;2023-12-14T10:41:29;7.93;;;6.95;;
46721;SDS011;32455;43.430;23.136;2023-12-14T10:44:16;7.43;;;6.05;;
46721;SDS011;32455;43.430;23.136;2023-12-14T10:47:03;6.75;;;5.60;;
46721;SDS011;32455;43.430;23.136;2023-12-14T10:49:51;6.18;;;5.40;;
46721;SDS011;32455;43.430;23.136;2023-12-14T10:52:37;5.85;;;5.07;;
46721;SDS011;32455;43.430;23.136;2023-12-14T10:55:37;8.18;;;4.68;;
46721;SDS011;32455;43.430;23.136;2023-12-14T10:58:25;5.75;;;3.60;;
46721;SDS011;32455;43.430;23.136;2023-12-14T11:01:13;4.45;;;3.58;;
46721;SDS011;32455;43.430;23.136;2023-12-14T11:03:59;7.38;;;3.50;;
46721;SDS011;32455;43.430;23.136;2023-12-14T11:06:45;6.93;;;3.65;;
46721;SDS011;32455;43.430;23.136;2023-12-14T14:43:44;6.95;;;5.35;;
46721;SDS011;32455;43.430;23.136;2023-12-14T14:46:31;5.53;;;3.85;;
46721;SDS011;32455;43.430;23.136;2023-12-14T14:49:17;3.70;;;3.22;;
46721;SDS011;32455;43.430;23.136;2023-12-14T14:52:02;5.15;;;4.68;;
46721;SDS011;32455;43.430;23.136;2023-12-14T14:54:47;3.75;;;3.40;;
46721;SDS011;32455;43.430;23.136;2023-12-14T14:57:32;7.03;;;5.40;;
46721;SDS011;32455;43.430;23.136;2023-12-14T15:00:18;6.07;;;5.00;;
46721;SDS011;32455;43.430;23.136;2023-12-14T15:03:04;5.00;;;4.40;;
46721;SDS011;32455;43.430;23.136;2023-12-14T15:05:53;6.70;;;4.70;;
46721;SDS011;32455;43.430;23.136;2023-12-14T15:08:38;4.97;;;4.32;;
46721;SDS011;32455;43.430;23.136;2023-12-14T15:11:23;5.00;;;4.38;;
46721;SDS011;32455;43.430;23.136;2023-12-14T15:14:09;5.20;;;4.45;;
46721;SDS011;32455;43.430;23.136;2023-12-14T15:16:54;5.65;;;4.53;;
46721;SDS011;32455;43.430;23.136;2023-12-14T15:19:39;4.95;;;4.45;;
46721;SDS011;32455;43.430;23.136;2023-12-14T15:22:25;4.57;;;3.75;;
46721;SDS011;32455;43.430;23.136;2023-12-14T15:25:10;3.55;;;3.13;;
46721;SDS011;32455;43.430;23.136;2023-12-14T15:27:55;3.67;;;2.97;;
46721;SDS011;32455;43.430;23.136;2023-12-14T15:30:40;2.70;;;2.50;;
46721;SDS011;32455;43.430;23.136;2023-12-14T15:33:25;7.13;;;3.67;;
46721;SDS011;32455;43.430;23.136;2023-12-14T15:36:11;3.28;;;2.97;;
46721;SDS011;32455;43.430;23.136;2023-12-14T15:38:56;5.90;;;4.47;;
46721;SDS011;32455;43.430;23.136;2023-12-14T15:41:40;7.35;;;5.20;;
46721;SDS011;32455;43.430;23.136;2023-12-14T15:44:26;5.25;;;4.00;;
46721;SDS011;32455;43.430;23.136;2023-12-14T15:47:11;5.43;;;4.88;;
46721;SDS011;32455;43.430;23.136;2023-12-14T15:49:57;12.43;;;8.07;;
46721;SDS011;32455;43.430;23.136;2023-12-14T15:52:43;4.80;;;4.10;;
46721;SDS011;32455;43.430;23.136;2023-12-14T15:55:28;10.63;;;6.57;;
46721;SDS011;32455;43.430;23.136;2023-12-14T15:58:14;2.95;;;2.47;;
46721;SDS011;32455;43.430;23.136;2023-12-14T16:00:59;3.53;;;3.15;;
46721;SDS011;32455;43.430;23.136;2023-12-14T16:03:45;2.42;;;2.22;;
46721;SDS011;32455;43.430;23.136;2023-12-14T16:06:30;4.80;;;2.25;;
46721;SDS011;32455;43.430;23.136;2023-12-14T16:09:15;3.40;;;1.90;;
46721;SDS011;32455;43.430;23.136;2023-12-14T16:12:01;4.18;;;2.20;;
46721;SDS011;32455;43.430;23.136;2023-12-14T16:14:48;3.50;;;2.17;;
46721;SDS011;32455;43.430;23.136;2023-12-14T16:17:34;2.40;;;2.20;;
46721;SDS011;32455;43.430;23.136;2023-12-14T16:20:19;2.30;;;2.10;;
46721;SDS011;32455;43.430;23.136;2023-12-14T16:23:07;3.45;;;2.40;;
46721;SDS011;32455;43.430;23.136;2023-12-14T16:25:53;3.42;;;2.35;;
46721;SDS011;32455;43.430;23.136;2023-12-14T16:28:42;2.63;;;2.42;;
46721;SDS011;32455;43.430;23.136;2023-12-14T16:31:27;3.42;;;2.60;;
46721;SDS011;32455;43.430;23.136;2023-12-14T16:34:13;2.60;;;2.38;;
46721;SDS011;32455;43.430;23.136;2023-12-14T16:36:58;2.65;;;2.42;;
46721;SDS011;32455;43.430;23.136;2023-12-14T16:39:44;2.38;;;2.10;;
46721;SDS011;32455;43.430;23.136;2023-12-14T16:42:29;2.30;;;1.85;;
46721;SDS011;32455;43.430;23.136;2023-12-14T16:45:15;1.73;;;1.63;;
46721;SDS011;32455;43.430;23.136;2023-12-14T16:48:00;1.58;;;1.45;;
46721;SDS011;32455;43.430;23.136;2023-12-14T16:50:47;1.70;;;1.60;;
46721;SDS011;32455;43.430;23.136;2023-12-14T16:53:38;2.53;;;2.20;;
46721;SDS011;32455;43.430;23.136;2023-12-14T16:56:30;2.60;;;1.65;;
46721;SDS011;32455;43.430;23.136;2023-12-14T16:59:16;1.77;;;1.40;;
46721;SDS011;32455;43.430;23.136;2023-12-14T17:02:01;2.30;;;1.60;;
46721;SDS011;32455;43.430;23.136;2023-12-14T17:04:46;0.88;;;0.88;;
46721;SDS011;32455;43.430;23.136;2023-12-14T17:07:31;2.95;;;1.00;;
46721;SDS011;32455;43.430;23.136;2023-12-14T17:10:17;1.45;;;0.90;;
46721;SDS011;32455;43.430;23.136;2023-12-14T17:13:02;0.70;;;0.70;;
46721;SDS011;32455;43.430;23.136;2023-12-14T17:15:47;1.33;;;1.00;;
46721;SDS011;32455;43.430;23.136;2023-12-14T17:18:34;1.13;;;1.02;;
46721;SDS011;32455;43.430;23.136;2023-12-14T17:21:24;1.25;;;1.15;;
46721;SDS011;32455;43.430;23.136;2023-12-14T17:24:10;2.22;;;1.10;;
46721;SDS011;32455;43.430;23.136;2023-12-14T17:26:56;1.63;;;1.02;;
46721;SDS011;32455;43.430;23.136;2023-12-14T17:29:40;1.30;;;1.20;;
46721;SDS011;32455;43.430;23.136;2023-12-14T17:32:24;1.25;;;1.10;;
46721;SDS011;32455;43.430;23.136;2023-12-14T17:35:09;1.58;;;1.38;;
46721;SDS011;32455;43.430;23.136;2023-12-14T17:37:55;5.63;;;3.35;;
46721;SDS011;32455;43.430;23.136;2023-12-14T17:40:41;6.63;;;3.85;;
46721;SDS011;32455;43.430;23.136;2023-12-14T17:43:26;3.47;;;2.80;;
46721;SDS011;32455;43.430;23.136;2023-12-14T17:46:15;2.78;;;2.10;;
46721;SDS011;32455;43.430;23.136;2023-12-14T17:49:02;4.68;;;3.10;;
46721;SDS011;32455;43.430;23.136;2023-12-14T17:51:47;4.15;;;2.67;;
46721;SDS011;32455;43.430;23.136;2023-12-14T17:54:33;1.95;;;1.35;;
46721;SDS011;32455;43.430;23.136;2023-12-14T17:57:21;2.40;;;1.55;;
46721;SDS011;32455;43.430;23.136;2023-12-14T18:00:06;1.85;;;1.40;;
46721;SDS011;32455;43.430;23.136;2023-12-14T18:02:52;3.25;;;1.30;;
46721;SDS011;32455;43.430;23.136;2023-12-14T18:05:38;1.63;;;1.38;;
46721;SDS011;32455;43.430;23.136;2023-12-14T18:08:23;1.55;;;1.20;;
46721;SDS011;32455;43.430;23.136;2023-12-14T18:11:09;2.03;;;1.52;;
46721;SDS011;32455;43.430;23.136;2023-12-14T18:13:55;1.55;;;1.45;;
46721;SDS011;32455;43.430;23.136;2023-12-14T18:16:40;1.40;;;1.30;;
46721;SDS011;32455;43.430;23.136;2023-12-14T18:19:27;2.08;;;1.73;;
46721;SDS011;32455;43.430;23.136;2023-12-14T18:22:14;2.03;;;1.60;;
46721;SDS011;32455;43.430;23.136;2023-12-14T18:24:59;2.72;;;1.85;;
46721;SDS011;32455;43.430;23.136;2023-12-14T18:27:45;4.82;;;2.00;;
46721;SDS011;32455;43.430;23.136;2023-12-14T18:30:30;1.92;;;1.77;;
46721;SDS011;32455;43.430;23.136;2023-12-14T18:33:16;1.80;;;1.50;;
46721;SDS011;32455;43.430;23.136;2023-12-14T18:36:02;3.25;;;2.58;;
46721;SDS011;32455;43.430;23.136;2023-12-14T18:38:47;2.20;;;1.88;;
46721;SDS011;32455;43.430;23.136;2023-12-14T18:41:32;2.80;;;2.45;;
46721;SDS011;32455;43.430;23.136;2023-12-14T18:44:18;3.45;;;2.45;;
46721;SDS011;32455;43.430;23.136;2023-12-14T18:47:03;4.30;;;2.00;;
46721;SDS011;32455;43.430;23.136;2023-12-14T18:49:50;2.22;;;1.65;;
46721;SDS011;32455;43.430;23.136;2023-12-14T18:52:35;2.97;;;1.90;;
46721;SDS011;32455;43.430;23.136;2023-12-14T18:55:20;2.53;;;2.33;;
46721;SDS011;32455;43.430;23.136;2023-12-14T18:58:06;5.63;;;5.13;;
46721;SDS011;32455;43.430;23.136;2023-12-14T19:00:53;10.00;;;9.02;;
46721;SDS011;32455;43.430;23.136;2023-12-14T19:03:38;7.50;;;5.03;;
46721;SDS011;32455;43.430;23.136;2023-12-14T19:06:24;2.53;;;2.20;;
46721;SDS011;32455;43.430;23.136;2023-12-14T19:09:09;5.13;;;4.40;;
46721;SDS011;32455;43.430;23.136;2023-12-14T19:11:54;3.45;;;2.72;;
46721;SDS011;32455;43.430;23.136;2023-12-14T19:14:39;2.97;;;2.67;;
46721;SDS011;32455;43.430;23.136;2023-12-14T19:17:24;2.65;;;2.42;;
46721;SDS011;32455;43.430;23.136;2023-12-14T19:20:10;4.43;;;2.03;;
46721;SDS011;32455;43.430;23.136;2023-12-14T19:22:56;3.25;;;2.03;;
46721;SDS011;32455;43.430;23.136;2023-12-14T19:25:41;1.98;;;1.88;;
46721;SDS011;32455;43.430;23.136;2023-12-14T19:28:27;3.65;;;1.60;;
46721;SDS011;32455;43.430;23.136;2023-12-14T19:31:12;2.92;;;2.40;;
46721;SDS011;32455;43.430;23.136;2023-12-14T19:33:58;2.13;;;1.65;;
46721;SDS011;32455;43.430;23.136;2023-12-14T19:36:42;2.10;;;1.92;;
46721;SDS011;32455;43.430;23.136;2023-12-14T19:39:28;3.03;;;2.70;;
46721;SDS011;32455;43.430;23.136;2023-12-14T19:42:17;3.50;;;3.20;;
46721;SDS011;32455;43.430;23.136;2023-12-14T19:45:03;2.47;;;2.17;;